createdAt,value
2022-10-16T00:00:54.838Z,101011.88
2022-10-16T00:03:21.973Z,101008.34
2022-10-16T00:05:50.777Z,101006.69
2022-10-16T00:08:17.387Z,100998.69
2022-10-16T00:10:43.947Z,100998.75
2022-10-16T00:13:10.583Z,100997.03
2022-10-16T00:15:37.660Z,100992.59
2022-10-16T00:18:05.082Z,101008.47
2022-10-16T00:20:34.496Z,101000.53
2022-10-16T00:23:01.082Z,101003.19
2022-10-16T00:25:27.731Z,101000.53
2022-10-16T00:27:54.652Z,101011.13
2022-10-16T00:30:24.357Z,101006.72
2022-10-16T00:32:50.915Z,101015.56
2022-10-16T00:35:17.534Z,101023.50
2022-10-16T00:37:44.490Z,101032.34
2022-10-16T00:40:11.439Z,101020.91
2022-10-16T00:42:38.160Z,101020.91
2022-10-16T00:45:05.121Z,101022.69
2022-10-16T00:47:32.933Z,101018.25
2022-10-16T00:50:06.918Z,101029.75
2022-10-16T00:52:33.473Z,101017.38
2022-10-16T00:55:00.032Z,101022.69
2022-10-16T00:57:26.656Z,101025.31
2022-10-16T00:59:53.212Z,101027.13
2022-10-16T01:02:19.804Z,101028.91
2022-10-16T01:04:49.119Z,101035.06
2022-10-16T01:07:57.549Z,101042.16
2022-10-16T01:10:41.361Z,101047.44
2022-10-16T01:13:10.615Z,101041.22
2022-10-16T01:15:46.164Z,101041.22
2022-10-16T01:18:18.564Z,101034.19
2022-10-16T01:20:57.627Z,101034.19
2022-10-16T01:24:01.856Z,101041.28
2022-10-16T01:26:42.463Z,101043.94
2022-10-16T01:29:09.249Z,101051.00
2022-10-16T01:31:37.628Z,101049.22
2022-10-16T01:34:11.142Z,101055.38
2022-10-16T01:36:43.424Z,101053.66
2022-10-16T01:39:12.948Z,101051.00
2022-10-16T01:41:42.360Z,101051.91
2022-10-16T01:44:18.810Z,101051.00
2022-10-16T01:46:47.080Z,101051.91
2022-10-16T01:49:14.346Z,101050.19
2022-10-16T01:51:41.018Z,101068.72
2022-10-16T01:54:09.137Z,101067.81
2022-10-16T01:56:35.884Z,101066.06
2022-10-16T01:59:25.884Z,101072.25
2022-10-16T02:02:00.983Z,101076.66
2022-10-16T02:04:33.315Z,101073.16
2022-10-16T02:06:59.925Z,101075.81
2022-10-16T02:09:26.483Z,101075.88
2022-10-16T02:11:54.825Z,101074.94
2022-10-16T02:14:21.401Z,101077.59
2022-10-16T02:16:48.075Z,101089.12
2022-10-16T02:19:14.857Z,101089.97
2022-10-16T02:21:48.170Z,101081.16
2022-10-16T02:24:20.644Z,101083.81
2022-10-16T02:26:50.672Z,101074.16
2022-10-16T02:29:18.800Z,101074.16
2022-10-16T02:31:48.280Z,101071.50
2022-10-16T02:34:14.945Z,101075.94
2022-10-16T02:36:41.990Z,101080.34
2022-10-16T02:39:08.818Z,101082.13
2022-10-16T02:41:35.476Z,101090.94
2022-10-16T02:44:02.023Z,101083.91
2022-10-16T02:46:28.620Z,101093.63
2022-10-16T02:48:55.168Z,101088.34
2022-10-16T02:51:21.849Z,101088.41
2022-10-16T02:53:48.395Z,101088.41
2022-10-16T02:56:15.028Z,101085.69
2022-10-16T02:58:41.648Z,101085.75
2022-10-16T03:01:08.991Z,101093.69
2022-10-16T03:03:38.314Z,101094.56
2022-10-16T03:06:05.101Z,101092.84
2022-10-16T03:08:31.652Z,101089.31
2022-10-16T03:11:00.347Z,101091.97
2022-10-16T03:13:26.906Z,101090.22
2022-10-16T03:15:53.504Z,101099.03
2022-10-16T03:18:20.134Z,101097.28
2022-10-16T03:20:46.785Z,101096.44
2022-10-16T03:23:13.361Z,101103.47
2022-10-16T03:25:42.501Z,101102.59
2022-10-16T03:28:09.325Z,101107.91
2022-10-16T03:30:35.930Z,101115.84
2022-10-16T03:33:02.562Z,101111.47
2022-10-16T03:35:29.156Z,101122.06
2022-10-16T03:37:55.749Z,101122.06
2022-10-16T03:40:22.414Z,101131.78
2022-10-16T03:42:48.971Z,101130.06
2022-10-16T03:45:15.644Z,101128.31
2022-10-16T03:47:42.360Z,101127.44
2022-10-16T03:50:09.099Z,101127.44
2022-10-16T03:52:35.754Z,101138.03
2022-10-16T03:55:02.284Z,101141.59
2022-10-16T03:57:29.181Z,101137.16
2022-10-16T03:59:55.971Z,101137.16
2022-10-16T04:02:22.581Z,101131.00
2022-10-16T04:04:49.175Z,101136.31
2022-10-16T04:07:15.802Z,101130.16
2022-10-16T04:09:43.006Z,101145.97
2022-10-16T04:12:09.639Z,101138.72
2022-10-16T04:14:36.216Z,101140.25
2022-10-16T04:17:02.957Z,101142.59
2022-10-16T04:19:29.533Z,101151.97
2022-10-16T04:21:56.086Z,101146.38
2022-10-16T04:24:22.675Z,101149.59
2022-10-16T04:26:49.235Z,101150.03
2022-10-16T04:29:15.901Z,101147.84
2022-10-16T04:31:42.489Z,101144.88
2022-10-16T04:34:09.182Z,101143.62
2022-10-16T04:36:35.797Z,101146.91
2022-10-16T04:39:02.436Z,101152.88
2022-10-16T04:41:28.997Z,101147.34
2022-10-16T04:43:55.599Z,101156.00
2022-10-16T04:46:22.182Z,101153.25
2022-10-16T04:48:48.751Z,101159.34
2022-10-16T04:51:15.322Z,101164.56
2022-10-16T04:53:41.895Z,101162.72
2022-10-16T04:56:08.451Z,101158.28
2022-10-16T04:58:34.985Z,101167.06
2022-10-16T05:01:01.534Z,101168.81
2022-10-16T05:03:28.292Z,101176.75
2022-10-16T05:05:54.935Z,101177.62
2022-10-16T05:08:21.655Z,101181.22
2022-10-16T05:10:48.250Z,101178.56
2022-10-16T05:13:14.784Z,101178.56
2022-10-16T05:15:41.715Z,101171.53
2022-10-16T05:18:09.106Z,101175.09
2022-10-16T05:20:35.677Z,101177.78
2022-10-16T05:23:02.261Z,101183.13
2022-10-16T05:25:28.927Z,101184.91
2022-10-16T05:27:55.508Z,101185.00
2022-10-16T05:30:22.159Z,101191.19
2022-10-16T05:32:49.866Z,101192.13
2022-10-16T05:35:17.191Z,101193.06
2022-10-16T05:37:43.728Z,101200.19
2022-10-16T05:40:11.063Z,101202.91
2022-10-16T05:42:38.226Z,101199.37
2022-10-16T05:45:06.456Z,101204.75
2022-10-16T05:47:33.015Z,101207.44
2022-10-16T05:49:59.582Z,101211.03
2022-10-16T05:52:26.160Z,101213.75
2022-10-16T05:54:52.723Z,101198.75
2022-10-16T05:57:19.257Z,101198.78
2022-10-16T05:59:46.002Z,101202.34
2022-10-16T06:02:17.095Z,101205.00
2022-10-16T06:04:43.703Z,101217.47
2022-10-16T06:07:10.247Z,101220.13
2022-10-16T06:09:36.853Z,101224.59
2022-10-16T06:12:03.485Z,101234.34
2022-10-16T06:14:30.136Z,101242.31
2022-10-16T06:16:56.678Z,101236.16
2022-10-16T06:19:23.918Z,101237.06
2022-10-16T06:21:50.467Z,101245.97
2022-10-16T06:24:17.091Z,101245.06
2022-10-16T06:26:43.955Z,101239.75
2022-10-16T06:29:10.558Z,101238.88
2022-10-16T06:31:37.183Z,101238.09
2022-10-16T06:34:05.763Z,101240.75
2022-10-16T06:36:32.450Z,101255.72
2022-10-16T06:38:59.023Z,101266.34
2022-10-16T06:41:25.649Z,101264.63
2022-10-16T06:43:53.255Z,101267.28
2022-10-16T06:46:21.681Z,101269.06
2022-10-16T06:48:50.970Z,101272.62
2022-10-16T06:51:20.859Z,101279.72
2022-10-16T06:54:06.901Z,101274.44
2022-10-16T06:56:33.897Z,101274.44
2022-10-16T06:59:00.753Z,101276.19
2022-10-16T07:01:28.513Z,101275.31
2022-10-16T07:03:55.078Z,101279.75
2022-10-16T07:06:23.035Z,101291.25
2022-10-16T07:08:49.783Z,101296.53
2022-10-16T07:11:21.242Z,101301.84
2022-10-16T07:13:52.545Z,101298.34
2022-10-16T07:16:23.134Z,101307.16
2022-10-16T07:18:50.375Z,101308.03
2022-10-16T07:21:18.466Z,101308.00
2022-10-16T07:23:45.048Z,101315.09
2022-10-16T07:26:11.775Z,101315.09
2022-10-16T07:28:38.820Z,101316.75
2022-10-16T07:31:07.713Z,101310.53
2022-10-16T07:33:34.738Z,101321.09
2022-10-16T07:36:01.347Z,101329.06
2022-10-16T07:38:27.959Z,101338.75
2022-10-16T07:40:59.068Z,101340.47
2022-10-16T07:43:26.492Z,101329.94
2022-10-16T07:48:25.365Z,101334.41
2022-10-16T07:50:51.979Z,101345.06
2022-10-16T07:53:20.514Z,101338.91
2022-10-16T07:55:48.935Z,101342.47
2022-10-16T07:58:15.490Z,101339.81
2022-10-16T08:00:42.052Z,101343.41
2022-10-16T08:03:09.323Z,101342.50
2022-10-16T08:05:35.994Z,101340.75
2022-10-16T08:08:03.043Z,101342.56
2022-10-16T08:10:29.953Z,101352.22
2022-10-16T08:12:56.547Z,101350.44
2022-10-16T08:15:23.408Z,101358.28
2022-10-16T08:18:00.367Z,101354.72
2022-10-16T08:20:27.329Z,101358.19
2022-10-16T08:22:54.949Z,101356.34
2022-10-16T08:25:22.471Z,101358.09
2022-10-16T08:27:49.213Z,101366.00
2022-10-16T08:30:16.238Z,101375.66
2022-10-16T08:32:43.059Z,101377.41
2022-10-16T08:35:12.958Z,101375.66
2022-10-16T08:37:39.770Z,101375.59
2022-10-16T08:40:07.534Z,101383.56
2022-10-16T08:42:53.533Z,101378.25
2022-10-16T08:45:35.288Z,101387.00
2022-10-16T08:48:06.550Z,101387.00
2022-10-16T08:50:33.844Z,101386.09
2022-10-16T08:53:00.435Z,101373.72
2022-10-16T08:55:35.318Z,101378.91
2022-10-16T08:58:01.861Z,101381.56
2022-10-16T09:00:28.510Z,101387.69
2022-10-16T09:03:24.241Z,101389.44
2022-10-16T09:06:19.219Z,101391.09
2022-10-16T09:09:04.593Z,101385.75
2022-10-16T09:11:51.447Z,101387.50
2022-10-16T09:14:38.999Z,101388.31
2022-10-16T09:17:31.280Z,101396.25
2022-10-16T09:20:10.407Z,101393.56
2022-10-16T09:22:36.972Z,101402.31
2022-10-16T09:25:12.798Z,101396.13
2022-10-16T09:27:39.227Z,101388.94
2022-10-16T09:30:19.428Z,101385.38
2022-10-16T09:32:49.360Z,101380.94
2022-10-16T09:35:20.047Z,101385.34
2022-10-16T09:37:47.972Z,101390.66
2022-10-16T09:40:24.925Z,101391.50
2022-10-16T09:42:51.500Z,101393.31
2022-10-16T09:45:22.674Z,101394.16
2022-10-16T09:47:50.851Z,101392.38
2022-10-16T09:50:22.212Z,101395.91
2022-10-16T09:52:48.970Z,101391.50
2022-10-16T09:55:17.605Z,101393.25
2022-10-16T09:58:14.108Z,101402.06
2022-10-16T10:00:41.202Z,101404.66
2022-10-16T10:03:11.434Z,101401.22
2022-10-16T10:05:38.536Z,101402.06
2022-10-16T10:08:09.461Z,101408.25
2022-10-16T10:10:42.514Z,101409.16
2022-10-16T10:13:22.731Z,101404.78
2022-10-16T10:15:49.322Z,101404.78
2022-10-16T10:18:17.552Z,101390.59
2022-10-16T10:20:44.354Z,101384.41
2022-10-16T10:23:22.471Z,101382.63
2022-10-16T10:26:08.892Z,101376.44
2022-10-16T10:29:17.384Z,101379.97
2022-10-16T10:32:09.663Z,101377.31
2022-10-16T10:35:14.051Z,101380.03
2022-10-16T10:37:49.776Z,101383.56
2022-10-16T10:40:29.412Z,101376.50
2022-10-16T10:43:40.385Z,101377.41
2022-10-16T10:46:07.700Z,101375.63
2022-10-16T10:48:52.799Z,101374.75
2022-10-16T10:51:24.390Z,101373.03
2022-10-16T10:54:16.062Z,101374.81
2022-10-16T10:57:01.708Z,101377.47
2022-10-16T10:59:32.063Z,101376.59
2022-10-16T11:02:22.396Z,101381.91
2022-10-16T11:04:58.983Z,101374.91
2022-10-16T11:07:31.185Z,101379.34
2022-10-16T11:10:24.032Z,101378.44
2022-10-16T11:12:56.218Z,101376.75
2022-10-16T11:15:26.865Z,101370.59
2022-10-16T11:17:56.866Z,101370.62
2022-10-16T11:20:31.186Z,101364.44
2022-10-16T11:23:07.261Z,101357.38
2022-10-16T11:25:34.099Z,101360.94
2022-10-16T11:28:11.926Z,101351.25
2022-10-16T11:30:51.419Z,101351.25
2022-10-16T11:33:32.567Z,101352.19
2022-10-16T11:36:20.495Z,101351.28
2022-10-16T11:38:54.897Z,101343.38
2022-10-16T11:41:21.390Z,101344.25
2022-10-16T11:44:06.824Z,101346.91
2022-10-16T11:46:33.658Z,101342.53
2022-10-16T11:49:35.931Z,101344.31
2022-10-16T11:52:41.502Z,101344.38
2022-10-16T11:55:18.072Z,101349.69
2022-10-16T11:57:55.886Z,101344.38
2022-10-16T12:00:31.355Z,101355.03
2022-10-16T12:03:13.234Z,101347.06
2022-10-16T12:06:07.975Z,101346.19
2022-10-16T12:08:35.390Z,101331.25
2022-10-16T12:11:09.969Z,101336.56
2022-10-16T12:13:41.241Z,101333.84
2022-10-16T12:16:13.978Z,101333.03
2022-10-16T12:18:41.472Z,101330.38
2022-10-16T12:21:08.592Z,101329.50
2022-10-16T12:23:39.257Z,101325.06
2022-10-16T12:26:05.881Z,101333.03
2022-10-16T12:28:36.522Z,101320.69
2022-10-16T12:31:07.871Z,101323.31
2022-10-16T12:33:34.745Z,101323.31
2022-10-16T12:36:03.287Z,101327.78
2022-10-16T12:38:39.786Z,101330.44
2022-10-16T12:41:11.738Z,101319.88
2022-10-16T12:43:45.582Z,101317.22
2022-10-16T12:46:17.952Z,101323.41
2022-10-16T12:48:49.543Z,101326.97
2022-10-16T12:51:31.886Z,101321.66
2022-10-16T12:54:11.206Z,101317.28
2022-10-16T12:56:44.439Z,101325.25
2022-10-16T12:59:10.950Z,101327.00
2022-10-16T13:02:04.250Z,101327.00
2022-10-16T13:04:46.028Z,101331.44
2022-10-16T13:07:38.344Z,101329.72
2022-10-16T13:10:04.769Z,101338.53
2022-10-16T13:13:10.682Z,101339.47
2022-10-16T13:15:43.366Z,101340.31
2022-10-16T13:18:17.187Z,101344.78
2022-10-16T13:21:03.922Z,101340.38
2022-10-16T13:24:06.271Z,101331.56
2022-10-16T13:26:56.714Z,101336.88
2022-10-16T13:29:23.464Z,101331.56
2022-10-16T13:31:50.038Z,101341.31
2022-10-16T13:34:21.472Z,101351.94
2022-10-16T13:36:52.108Z,101344.84
2022-10-16T13:39:31.633Z,101343.13
2022-10-16T13:42:04.845Z,101341.34
2022-10-16T13:44:44.734Z,101340.47
2022-10-16T13:47:18.656Z,101336.03
2022-10-16T13:49:45.314Z,101342.25
2022-10-16T13:52:20.087Z,101340.53
2022-10-16T13:54:46.648Z,101344.91
2022-10-16T13:57:26.656Z,101343.19
2022-10-16T13:59:54.320Z,101347.62
2022-10-16T14:02:36.351Z,101349.41
2022-10-16T14:05:03.715Z,101354.72
2022-10-16T14:07:34.037Z,101356.47
2022-10-16T14:10:08.268Z,101354.72
2022-10-16T14:12:35.547Z,101352.09
2022-10-16T14:15:02.300Z,101351.25
2022-10-16T14:17:30.440Z,101351.25
2022-10-16T14:20:01.008Z,101351.25
2022-10-16T14:22:43.316Z,101347.72
2022-10-16T14:25:27.487Z,101348.59
2022-10-16T14:28:05.043Z,101349.50
2022-10-16T14:30:33.924Z,101350.38
2022-10-16T14:33:07.524Z,101350.44
2022-10-16T14:35:40.410Z,101341.63
2022-10-16T14:38:07.481Z,101341.63
2022-10-16T14:40:37.902Z,101354.00
2022-10-16T14:43:04.888Z,101356.66
2022-10-16T14:45:32.946Z,101354.00
2022-10-16T14:48:04.966Z,101352.25
2022-10-16T14:50:31.550Z,101358.41
2022-10-16T14:52:58.145Z,101359.34
2022-10-16T14:57:59.650Z,101358.47
2022-10-16T15:00:27.879Z,101357.62
2022-10-16T15:02:54.477Z,101356.75
2022-10-16T15:05:28.055Z,101356.75
2022-10-16T15:07:55.954Z,101349.72
2022-10-16T15:10:23.591Z,101351.50
2022-10-16T15:12:50.230Z,101360.31
2022-10-16T15:15:21.446Z,101354.16
2022-10-16T15:17:48.897Z,101359.50
2022-10-16T15:20:15.524Z,101363.88
2022-10-16T15:22:42.078Z,101374.47
2022-10-16T15:25:33.694Z,101373.63
2022-10-16T15:28:00.754Z,101388.66
2022-10-16T15:30:27.304Z,101389.59
2022-10-16T15:32:53.995Z,101384.28
2022-10-16T15:35:20.626Z,101385.16
2022-10-16T15:37:48.227Z,101387.81
2022-10-16T15:40:15.237Z,101386.94
2022-10-16T15:42:42.121Z,101394.91
2022-10-16T15:45:10.098Z,101387.88
2022-10-16T15:47:36.900Z,101395.81
2022-10-16T15:50:04.070Z,101394.09
2022-10-16T15:52:32.696Z,101395.81
2022-10-16T15:54:59.823Z,101397.59
2022-10-16T15:57:26.878Z,101397.59
2022-10-16T15:59:53.485Z,101395.84
2022-10-16T16:02:20.095Z,101396.75
2022-10-16T16:04:46.645Z,101403.81
2022-10-16T16:07:13.287Z,101404.69
2022-10-16T16:09:39.831Z,101410.00
2022-10-16T16:12:06.418Z,101412.66
2022-10-16T16:14:32.991Z,101417.97
2022-10-16T16:16:59.568Z,101429.47
2022-10-16T16:19:26.153Z,101425.03
2022-10-16T16:21:52.712Z,101432.12
2022-10-16T16:24:19.278Z,101437.41
2022-10-16T16:26:45.870Z,101434.75
2022-10-16T16:29:13.428Z,101437.41
2022-10-16T16:31:40.305Z,101443.66
2022-10-16T16:34:06.913Z,101446.28
2022-10-16T16:36:33.883Z,101456.91
2022-10-16T16:39:00.450Z,101465.72
2022-10-16T16:41:28.884Z,101459.56
2022-10-16T16:43:55.587Z,101464.88
2022-10-16T16:46:22.272Z,101467.50
2022-10-16T16:48:50.975Z,101472.81
2022-10-16T16:51:19.185Z,101469.31
2022-10-16T16:53:49.408Z,101464.88
2022-10-16T16:56:15.967Z,101471.97
2022-10-16T16:58:42.810Z,101470.16
2022-10-16T17:01:25.983Z,101477.25
2022-10-16T17:03:53.472Z,101479.91
2022-10-16T17:06:28.325Z,101479.97
2022-10-16T17:08:54.999Z,101486.94
2022-10-16T17:11:27.730Z,101490.53
2022-10-16T17:13:56.983Z,101502.06
2022-10-16T17:16:30.278Z,101500.28
2022-10-16T17:18:59.354Z,101500.28
2022-10-16T17:21:26.904Z,101502.97
2022-10-16T17:23:53.652Z,101505.63
2022-10-16T17:26:20.268Z,101512.66
2022-10-16T17:28:46.921Z,101517.09
2022-10-16T17:31:18.662Z,101520.69
2022-10-16T17:33:45.321Z,101523.31
2022-10-16T17:36:14.493Z,101522.44
2022-10-16T17:38:41.787Z,101524.22
2022-10-16T17:41:19.355Z,101535.69
2022-10-16T17:43:45.980Z,101534.81
2022-10-16T17:46:12.933Z,101535.75
2022-10-16T17:48:43.807Z,101541.91
2022-10-16T17:51:11.189Z,101544.56
2022-10-16T17:53:37.929Z,101544.56
2022-10-16T17:56:09.046Z,101549.88
2022-10-16T17:58:35.630Z,101543.69
2022-10-16T18:01:02.447Z,101558.75
2022-10-16T18:03:29.112Z,101555.22
2022-10-16T18:05:55.853Z,101561.41
2022-10-16T18:08:26.334Z,101565.84
2022-10-16T18:10:55.416Z,101555.22
2022-10-16T18:13:23.491Z,101565.84
2022-10-16T18:16:02.520Z,101564.09
2022-10-16T18:18:29.832Z,101563.25
2022-10-16T18:21:00.075Z,101557.94
2022-10-16T18:23:27.311Z,101567.66
2022-10-16T18:25:53.926Z,101565.00
2022-10-16T18:28:20.784Z,101567.66
2022-10-16T18:31:01.358Z,101569.44
2022-10-16T18:33:28.263Z,101563.25
2022-10-16T18:35:54.863Z,101564.12
2022-10-16T18:38:21.512Z,101575.66
2022-10-16T18:40:48.171Z,101576.53
2022-10-16T18:43:14.748Z,101574.78
2022-10-16T18:45:41.307Z,101580.97
2022-10-16T18:48:07.881Z,101577.44
2022-10-16T18:50:34.621Z,101578.38
2022-10-16T18:53:01.224Z,101582.81
2022-10-16T18:55:30.905Z,101589.87
2022-10-16T18:57:57.727Z,101592.53
2022-10-16T19:00:24.331Z,101589.00
2022-10-16T19:02:50.918Z,101599.59
2022-10-16T19:05:17.480Z,101592.56
2022-10-16T19:07:47.139Z,101596.06
2022-10-16T19:10:14.081Z,101599.66
2022-10-16T19:12:41.274Z,101600.50
2022-10-16T19:15:08.310Z,101599.66
2022-10-16T19:17:36.533Z,101598.78
2022-10-16T19:20:04.525Z,101590.00
2022-10-16T19:22:51.050Z,101598.84
2022-10-16T19:25:18.406Z,101597.97
2022-10-16T19:27:44.994Z,101601.50
2022-10-16T19:32:43.179Z,101604.16
2022-10-16T19:35:09.842Z,101603.28
2022-10-16T19:37:36.556Z,101602.44
2022-10-16T19:40:04.522Z,101610.38
2022-10-16T19:42:31.122Z,101616.56
2022-10-16T19:44:57.664Z,101619.19
2022-10-16T19:47:24.738Z,101621.91
2022-10-16T19:49:52.471Z,101626.34
2022-10-16T19:52:19.065Z,101632.50
2022-10-16T19:54:45.736Z,101639.59
2022-10-16T19:57:12.315Z,101635.22
2022-10-16T19:59:45.893Z,101632.56
2022-10-16T20:02:12.659Z,101635.22
2022-10-16T20:04:39.218Z,101645.81
2022-10-16T20:07:05.942Z,101649.34
2022-10-16T20:09:33.252Z,101644.97
2022-10-16T20:11:59.828Z,101651.13
2022-10-16T20:14:26.381Z,101661.75
2022-10-16T20:16:55.482Z,101664.41
2022-10-16T20:19:22.114Z,101665.31
2022-10-16T20:21:48.800Z,101674.13
2022-10-16T20:24:15.641Z,101680.31
2022-10-16T20:26:42.240Z,101688.31
2022-10-16T20:29:08.882Z,101693.63
2022-10-16T20:31:35.549Z,101693.63
2022-10-16T20:34:04.938Z,101704.22
2022-10-16T20:36:33.377Z,101706.91
2022-10-16T20:39:00.513Z,101710.44
2022-10-16T20:41:27.374Z,101711.31
2022-10-16T20:43:55.666Z,101702.50
2022-10-16T20:46:23.751Z,101713.97
2022-10-16T20:48:50.514Z,101709.56
2022-10-16T20:51:17.860Z,101717.53
2022-10-16T20:53:46.480Z,101728.13
2022-10-16T20:56:15.776Z,101724.63
2022-10-16T20:58:42.443Z,101728.16
2022-10-16T21:01:10.480Z,101724.63
2022-10-16T21:03:37.303Z,101722.84
2022-10-16T21:06:07.638Z,101722.84
2022-10-16T21:08:38.161Z,101726.41
2022-10-16T21:11:19.136Z,101731.72
2022-10-16T21:13:45.884Z,101729.06
2022-10-16T21:16:13.618Z,101734.38
2022-10-16T21:18:44.219Z,101737.03
2022-10-16T21:21:12.133Z,101755.56
2022-10-16T21:23:38.774Z,101745.87
2022-10-16T21:26:05.323Z,101750.28
2022-10-16T21:28:32.103Z,101744.97
2022-10-16T21:30:58.887Z,101741.44
2022-10-16T21:33:25.489Z,101738.81
2022-10-16T21:35:52.058Z,101743.25
2022-10-16T21:38:18.624Z,101744.16
2022-10-16T21:40:45.646Z,101745.03
2022-10-16T21:43:13.584Z,101741.50
2022-10-16T21:45:40.155Z,101746.81
2022-10-16T21:48:06.959Z,101742.37
2022-10-16T21:50:33.519Z,101739.72
2022-10-16T21:53:00.080Z,101745.03
2022-10-16T21:55:26.648Z,101749.47
2022-10-16T21:57:53.182Z,101738.87
2022-10-16T22:00:19.850Z,101748.59
2022-10-16T22:02:46.408Z,101753.03
2022-10-16T22:05:12.988Z,101750.38
2022-10-16T22:07:39.580Z,101753.09
2022-10-16T22:10:06.784Z,101753.94
2022-10-16T22:12:33.333Z,101761.09
2022-10-16T22:14:59.870Z,101762.81
2022-10-16T22:17:26.567Z,101762.81
2022-10-16T22:19:53.280Z,101769.91
2022-10-16T22:22:19.850Z,101770.78
2022-10-16T22:24:47.107Z,101776.94
2022-10-16T22:27:13.681Z,101769.91
2022-10-16T22:29:40.246Z,101775.22
2022-10-16T22:32:07.669Z,101773.44
2022-10-16T22:34:36.693Z,101776.97
2022-10-16T22:37:03.559Z,101771.66
2022-10-16T22:39:30.153Z,101775.25
2022-10-16T22:41:56.841Z,101764.63
2022-10-16T22:44:23.407Z,101771.66
2022-10-16T22:46:49.982Z,101770.81
2022-10-16T22:49:18.643Z,101776.16
2022-10-16T22:51:45.188Z,101777.88
2022-10-16T22:54:11.818Z,101791.19
2022-10-16T22:56:38.441Z,101782.37
2022-10-16T22:59:05.151Z,101787.66
2022-10-16T23:01:34.724Z,101795.63
2022-10-16T23:04:01.558Z,101800.03
2022-10-16T23:06:29.644Z,101798.28
2022-10-16T23:08:57.486Z,101800.06
2022-10-16T23:11:24.060Z,101805.31
2022-10-16T23:13:50.644Z,101809.81
2022-10-16T23:16:18.245Z,101803.63
2022-10-16T23:18:44.939Z,101811.59
2022-10-16T23:21:16.226Z,101811.59
2022-10-16T23:23:42.878Z,101815.16
2022-10-16T23:26:13.819Z,101818.66
2022-10-16T23:28:40.520Z,101812.50
2022-10-16T23:31:07.321Z,101820.44
2022-10-16T23:33:34.128Z,101826.63
2022-10-16T23:36:04.911Z,101827.53
2022-10-16T23:38:34.819Z,101826.63
2022-10-16T23:41:01.542Z,101832.84
2022-10-16T23:43:28.116Z,101829.38
2022-10-16T23:45:54.824Z,101832.03
2022-10-16T23:48:21.393Z,101833.81
2022-10-16T23:50:47.975Z,101825.84
2022-10-16T23:53:14.633Z,101832.06
2022-10-16T23:55:41.251Z,101832.06
2022-10-16T23:58:07.831Z,101830.28
